sensor_id;sensor_type;location;lat;lon;timestamp;P1;durP1;ratioP1;P2;durP2;ratioP2
9722;SDS011;4900;49.306;8.500;2023-02-12T00:00:37;26.27;;;16.63;;
9722;SDS011;4900;49.306;8.500;2023-02-12T00:03:42;27.83;;;17.20;;
9722;SDS011;4900;49.306;8.500;2023-02-12T00:06:45;27.00;;;17.33;;
9722;SDS011;4900;49.306;8.500;2023-02-12T00:09:48;26.97;;;16.47;;
9722;SDS011;4900;49.306;8.500;2023-02-12T00:12:54;24.13;;;16.40;;
9722;SDS011;4900;49.306;8.500;2023-02-12T00:15:58;24.13;;;15.57;;
9722;SDS011;4900;49.306;8.500;2023-02-12T00:19:01;27.77;;;17.60;;
9722;SDS011;4900;49.306;8.500;2023-02-12T00:22:04;27.33;;;17.80;;
9722;SDS011;4900;49.306;8.500;2023-02-12T00:25:07;27.80;;;18.33;;
9722;SDS011;4900;49.306;8.500;2023-02-12T00:28:10;30.03;;;18.70;;
9722;SDS011;4900;49.306;8.500;2023-02-12T00:31:17;27.67;;;18.70;;
9722;SDS011;4900;49.306;8.500;2023-02-12T00:34:26;30.13;;;18.40;;
9722;SDS011;4900;49.306;8.500;2023-02-12T00:37:29;30.23;;;19.43;;
9722;SDS011;4900;49.306;8.500;2023-02-12T00:40:31;32.23;;;19.83;;
9722;SDS011;4900;49.306;8.500;2023-02-12T00:43:35;32.27;;;20.00;;
9722;SDS011;4900;49.306;8.500;2023-02-12T00:46:38;33.73;;;21.40;;
9722;SDS011;4900;49.306;8.500;2023-02-12T00:49:42;31.80;;;20.97;;
9722;SDS011;4900;49.306;8.500;2023-02-12T00:52:45;32.10;;;20.47;;
9722;SDS011;4900;49.306;8.500;2023-02-12T00:55:48;36.80;;;22.43;;
9722;SDS011;4900;49.306;8.500;2023-02-12T00:58:51;32.13;;;19.83;;
9722;SDS011;4900;49.306;8.500;2023-02-12T01:01:55;30.17;;;19.67;;
9722;SDS011;4900;49.306;8.500;2023-02-12T01:04:58;32.47;;;20.20;;
9722;SDS011;4900;49.306;8.500;2023-02-12T01:08:01;31.13;;;19.07;;
9722;SDS011;4900;49.306;8.500;2023-02-12T01:11:05;29.87;;;18.80;;
9722;SDS011;4900;49.306;8.500;2023-02-12T01:14:09;29.47;;;19.20;;
9722;SDS011;4900;49.306;8.500;2023-02-12T01:17:11;28.50;;;19.40;;
9722;SDS011;4900;49.306;8.500;2023-02-12T01:20:15;30.20;;;20.30;;
9722;SDS011;4900;49.306;8.500;2023-02-12T01:23:21;29.30;;;18.67;;
9722;SDS011;4900;49.306;8.500;2023-02-12T01:26:24;25.23;;;17.20;;
9722;SDS011;4900;49.306;8.500;2023-02-12T01:29:28;28.00;;;19.30;;
9722;SDS011;4900;49.306;8.500;2023-02-12T01:32:31;28.30;;;18.27;;
9722;SDS011;4900;49.306;8.500;2023-02-12T01:35:35;25.27;;;17.03;;
9722;SDS011;4900;49.306;8.500;2023-02-12T01:38:39;27.10;;;18.63;;
9722;SDS011;4900;49.306;8.500;2023-02-12T01:41:43;26.73;;;17.67;;
9722;SDS011;4900;49.306;8.500;2023-02-12T01:48:15;30.40;;;19.40;;
9722;SDS011;4900;49.306;8.500;2023-02-12T01:51:20;29.67;;;19.10;;
9722;SDS011;4900;49.306;8.500;2023-02-12T01:54:25;28.33;;;18.13;;
9722;SDS011;4900;49.306;8.500;2023-02-12T01:57:31;32.10;;;20.37;;
9722;SDS011;4900;49.306;8.500;2023-02-12T02:00:36;29.13;;;20.13;;
9722;SDS011;4900;49.306;8.500;2023-02-12T02:03:39;33.33;;;21.73;;
9722;SDS011;4900;49.306;8.500;2023-02-12T02:06:56;35.80;;;22.23;;
9722;SDS011;4900;49.306;8.500;2023-02-12T02:10:01;34.47;;;22.03;;
9722;SDS011;4900;49.306;8.500;2023-02-12T02:13:04;35.83;;;22.33;;
9722;SDS011;4900;49.306;8.500;2023-02-12T02:16:27;32.77;;;21.73;;
9722;SDS011;4900;49.306;8.500;2023-02-12T02:23:24;34.30;;;22.33;;
9722;SDS011;4900;49.306;8.500;2023-02-12T02:33:35;28.60;;;19.37;;
9722;SDS011;4900;49.306;8.500;2023-02-12T02:39:59;31.83;;;20.67;;
9722;SDS011;4900;49.306;8.500;2023-02-12T02:43:15;31.07;;;20.63;;
9722;SDS011;4900;49.306;8.500;2023-02-12T02:46:25;28.03;;;19.20;;
9722;SDS011;4900;49.306;8.500;2023-02-12T02:49:31;31.70;;;19.37;;
9722;SDS011;4900;49.306;8.500;2023-02-12T02:55:47;30.77;;;20.60;;
9722;SDS011;4900;49.306;8.500;2023-02-12T02:58:58;31.93;;;20.67;;
9722;SDS011;4900;49.306;8.500;2023-02-12T03:02:13;32.43;;;20.50;;
9722;SDS011;4900;49.306;8.500;2023-02-12T03:05:29;31.70;;;21.27;;
9722;SDS011;4900;49.306;8.500;2023-02-12T03:08:36;31.07;;;20.67;;
9722;SDS011;4900;49.306;8.500;2023-02-12T03:11:44;34.47;;;21.73;;
9722;SDS011;4900;49.306;8.500;2023-02-12T03:14:53;29.50;;;19.87;;
9722;SDS011;4900;49.306;8.500;2023-02-12T03:18:01;31.97;;;20.23;;
9722;SDS011;4900;49.306;8.500;2023-02-12T03:21:11;33.60;;;21.27;;
9722;SDS011;4900;49.306;8.500;2023-02-12T03:24:21;35.53;;;21.73;;
9722;SDS011;4900;49.306;8.500;2023-02-12T03:27:31;32.10;;;21.80;;
9722;SDS011;4900;49.306;8.500;2023-02-12T03:30:51;33.50;;;21.77;;
9722;SDS011;4900;49.306;8.500;2023-02-12T03:37:29;33.50;;;21.63;;
9722;SDS011;4900;49.306;8.500;2023-02-12T03:40:40;34.37;;;22.47;;
9722;SDS011;4900;49.306;8.500;2023-02-12T03:43:55;33.57;;;20.77;;
9722;SDS011;4900;49.306;8.500;2023-02-12T03:54:24;37.30;;;22.90;;
9722;SDS011;4900;49.306;8.500;2023-02-12T03:57:30;35.23;;;22.53;;
9722;SDS011;4900;49.306;8.500;2023-02-12T04:00:37;37.03;;;23.00;;
9722;SDS011;4900;49.306;8.500;2023-02-12T04:03:41;36.27;;;23.37;;
9722;SDS011;4900;49.306;8.500;2023-02-12T04:06:45;35.90;;;22.47;;
9722;SDS011;4900;49.306;8.500;2023-02-12T04:09:50;33.23;;;21.37;;
9722;SDS011;4900;49.306;8.500;2023-02-12T04:19:30;28.90;;;20.57;;
9722;SDS011;4900;49.306;8.500;2023-02-12T04:29:58;28.57;;;19.50;;
9722;SDS011;4900;49.306;8.500;2023-02-12T04:33:24;28.83;;;20.00;;
9722;SDS011;4900;49.306;8.500;2023-02-12T04:36:34;29.20;;;20.03;;
9722;SDS011;4900;49.306;8.500;2023-02-12T04:39:43;27.33;;;18.80;;
9722;SDS011;4900;49.306;8.500;2023-02-12T04:42:48;32.80;;;20.87;;
9722;SDS011;4900;49.306;8.500;2023-02-12T04:45:53;32.77;;;22.20;;
9722;SDS011;4900;49.306;8.500;2023-02-12T04:48:56;28.17;;;18.80;;
9722;SDS011;4900;49.306;8.500;2023-02-12T04:52:00;30.87;;;20.27;;
9722;SDS011;4900;49.306;8.500;2023-02-12T04:55:03;32.37;;;21.73;;
9722;SDS011;4900;49.306;8.500;2023-02-12T04:58:07;32.07;;;22.27;;
9722;SDS011;4900;49.306;8.500;2023-02-12T05:01:10;36.77;;;23.30;;
9722;SDS011;4900;49.306;8.500;2023-02-12T05:04:14;33.37;;;21.80;;
9722;SDS011;4900;49.306;8.500;2023-02-12T05:07:19;29.83;;;20.33;;
9722;SDS011;4900;49.306;8.500;2023-02-12T05:10:22;32.50;;;22.13;;
9722;SDS011;4900;49.306;8.500;2023-02-12T05:13:26;31.90;;;21.87;;
9722;SDS011;4900;49.306;8.500;2023-02-12T05:16:28;33.90;;;21.83;;
9722;SDS011;4900;49.306;8.500;2023-02-12T05:19:32;28.83;;;19.93;;
9722;SDS011;4900;49.306;8.500;2023-02-12T05:22:35;27.83;;;19.10;;
9722;SDS011;4900;49.306;8.500;2023-02-12T05:25:39;31.80;;;22.00;;
9722;SDS011;4900;49.306;8.500;2023-02-12T05:28:42;34.83;;;22.10;;
9722;SDS011;4900;49.306;8.500;2023-02-12T05:31:45;31.67;;;22.17;;
9722;SDS011;4900;49.306;8.500;2023-02-12T05:34:48;37.00;;;24.20;;
9722;SDS011;4900;49.306;8.500;2023-02-12T05:37:51;33.87;;;22.80;;
9722;SDS011;4900;49.306;8.500;2023-02-12T05:40:59;32.77;;;21.03;;
9722;SDS011;4900;49.306;8.500;2023-02-12T05:44:04;31.57;;;20.83;;
9722;SDS011;4900;49.306;8.500;2023-02-12T05:47:08;28.13;;;18.83;;
9722;SDS011;4900;49.306;8.500;2023-02-12T05:50:11;27.97;;;19.23;;
9722;SDS011;4900;49.306;8.500;2023-02-12T05:53:13;27.13;;;18.83;;
9722;SDS011;4900;49.306;8.500;2023-02-12T05:56:17;30.70;;;19.13;;
9722;SDS011;4900;49.306;8.500;2023-02-12T05:59:22;32.27;;;19.80;;
9722;SDS011;4900;49.306;8.500;2023-02-12T06:02:25;28.80;;;19.40;;
9722;SDS011;4900;49.306;8.500;2023-02-12T06:05:30;28.30;;;19.70;;
9722;SDS011;4900;49.306;8.500;2023-02-12T06:08:33;30.37;;;19.37;;
9722;SDS011;4900;49.306;8.500;2023-02-12T06:11:36;28.27;;;18.83;;
9722;SDS011;4900;49.306;8.500;2023-02-12T06:14:40;28.13;;;19.23;;
9722;SDS011;4900;49.306;8.500;2023-02-12T06:17:44;27.77;;;19.17;;
9722;SDS011;4900;49.306;8.500;2023-02-12T06:20:47;29.87;;;19.97;;
9722;SDS011;4900;49.306;8.500;2023-02-12T06:23:50;29.17;;;19.57;;
9722;SDS011;4900;49.306;8.500;2023-02-12T06:26:54;27.37;;;19.00;;
9722;SDS011;4900;49.306;8.500;2023-02-12T06:29:57;28.73;;;19.60;;
9722;SDS011;4900;49.306;8.500;2023-02-12T06:33:00;32.77;;;20.33;;
9722;SDS011;4900;49.306;8.500;2023-02-12T06:36:04;30.63;;;19.93;;
9722;SDS011;4900;49.306;8.500;2023-02-12T06:39:07;31.97;;;20.80;;
9722;SDS011;4900;49.306;8.500;2023-02-12T06:42:10;35.00;;;21.60;;
9722;SDS011;4900;49.306;8.500;2023-02-12T06:45:13;33.87;;;21.63;;
9722;SDS011;4900;49.306;8.500;2023-02-12T06:48:17;32.43;;;21.63;;
9722;SDS011;4900;49.306;8.500;2023-02-12T06:51:20;28.67;;;19.73;;
9722;SDS011;4900;49.306;8.500;2023-02-12T06:54:25;33.53;;;22.07;;
9722;SDS011;4900;49.306;8.500;2023-02-12T06:57:28;34.60;;;22.67;;
9722;SDS011;4900;49.306;8.500;2023-02-12T07:00:32;32.23;;;22.30;;
9722;SDS011;4900;49.306;8.500;2023-02-12T07:03:34;35.63;;;22.60;;
9722;SDS011;4900;49.306;8.500;2023-02-12T07:06:38;35.80;;;23.37;;
9722;SDS011;4900;49.306;8.500;2023-02-12T07:10:00;36.00;;;23.47;;
9722;SDS011;4900;49.306;8.500;2023-02-12T07:13:03;30.57;;;19.93;;
9722;SDS011;4900;49.306;8.500;2023-02-12T07:16:08;32.33;;;21.30;;
9722;SDS011;4900;49.306;8.500;2023-02-12T07:19:13;31.90;;;21.90;;
9722;SDS011;4900;49.306;8.500;2023-02-12T07:22:16;34.10;;;22.30;;
9722;SDS011;4900;49.306;8.500;2023-02-12T07:25:19;31.53;;;21.13;;
9722;SDS011;4900;49.306;8.500;2023-02-12T07:28:22;31.07;;;20.90;;
9722;SDS011;4900;49.306;8.500;2023-02-12T07:31:25;29.67;;;19.63;;
9722;SDS011;4900;49.306;8.500;2023-02-12T07:34:28;32.63;;;21.13;;
9722;SDS011;4900;49.306;8.500;2023-02-12T07:37:32;28.63;;;20.57;;
9722;SDS011;4900;49.306;8.500;2023-02-12T07:40:35;30.27;;;22.57;;
9722;SDS011;4900;49.306;8.500;2023-02-12T07:43:39;31.30;;;21.60;;
9722;SDS011;4900;49.306;8.500;2023-02-12T07:46:46;29.63;;;20.50;;
9722;SDS011;4900;49.306;8.500;2023-02-12T07:49:50;27.83;;;19.70;;
9722;SDS011;4900;49.306;8.500;2023-02-12T07:52:53;26.73;;;18.97;;
9722;SDS011;4900;49.306;8.500;2023-02-12T07:56:03;29.00;;;19.17;;
9722;SDS011;4900;49.306;8.500;2023-02-12T07:59:10;26.00;;;18.30;;
9722;SDS011;4900;49.306;8.500;2023-02-12T08:02:15;25.50;;;17.97;;
9722;SDS011;4900;49.306;8.500;2023-02-12T08:05:18;26.07;;;18.50;;
9722;SDS011;4900;49.306;8.500;2023-02-12T08:08:22;28.20;;;19.13;;
9722;SDS011;4900;49.306;8.500;2023-02-12T08:11:25;23.40;;;17.77;;
9722;SDS011;4900;49.306;8.500;2023-02-12T08:14:30;25.33;;;17.83;;
9722;SDS011;4900;49.306;8.500;2023-02-12T08:17:33;26.57;;;18.70;;
9722;SDS011;4900;49.306;8.500;2023-02-12T08:20:36;26.77;;;18.27;;
9722;SDS011;4900;49.306;8.500;2023-02-12T08:23:39;25.53;;;17.13;;
9722;SDS011;4900;49.306;8.500;2023-02-12T08:26:43;23.47;;;17.57;;
9722;SDS011;4900;49.306;8.500;2023-02-12T08:29:46;26.47;;;18.27;;
9722;SDS011;4900;49.306;8.500;2023-02-12T08:32:49;24.67;;;17.57;;
9722;SDS011;4900;49.306;8.500;2023-02-12T08:36:02;25.83;;;17.93;;
9722;SDS011;4900;49.306;8.500;2023-02-12T08:39:11;29.10;;;18.63;;
9722;SDS011;4900;49.306;8.500;2023-02-12T08:42:14;26.33;;;18.30;;
9722;SDS011;4900;49.306;8.500;2023-02-12T08:45:17;27.63;;;18.80;;
9722;SDS011;4900;49.306;8.500;2023-02-12T08:48:20;28.23;;;19.53;;
9722;SDS011;4900;49.306;8.500;2023-02-12T08:51:24;25.77;;;19.13;;
9722;SDS011;4900;49.306;8.500;2023-02-12T08:54:29;27.73;;;19.30;;
9722;SDS011;4900;49.306;8.500;2023-02-12T08:57:33;30.80;;;20.23;;
9722;SDS011;4900;49.306;8.500;2023-02-12T09:00:36;25.57;;;17.80;;
9722;SDS011;4900;49.306;8.500;2023-02-12T09:03:39;27.90;;;19.30;;
9722;SDS011;4900;49.306;8.500;2023-02-12T09:06:42;28.77;;;19.80;;
9722;SDS011;4900;49.306;8.500;2023-02-12T09:09:46;30.10;;;20.37;;
9722;SDS011;4900;49.306;8.500;2023-02-12T09:12:49;29.47;;;21.07;;
9722;SDS011;4900;49.306;8.500;2023-02-12T09:15:52;30.80;;;21.27;;
9722;SDS011;4900;49.306;8.500;2023-02-12T09:18:56;28.50;;;21.03;;
9722;SDS011;4900;49.306;8.500;2023-02-12T09:21:59;28.20;;;19.40;;
9722;SDS011;4900;49.306;8.500;2023-02-12T09:25:04;32.07;;;21.23;;
9722;SDS011;4900;49.306;8.500;2023-02-12T09:28:07;32.47;;;21.50;;
9722;SDS011;4900;49.306;8.500;2023-02-12T09:31:11;29.70;;;20.50;;
9722;SDS011;4900;49.306;8.500;2023-02-12T09:34:16;30.93;;;19.97;;
9722;SDS011;4900;49.306;8.500;2023-02-12T09:37:19;31.13;;;21.37;;
9722;SDS011;4900;49.306;8.500;2023-02-12T09:43:39;29.40;;;20.43;;
9722;SDS011;4900;49.306;8.500;2023-02-12T09:46:46;29.00;;;21.17;;
9722;SDS011;4900;49.306;8.500;2023-02-12T09:53:26;27.00;;;19.17;;
9722;SDS011;4900;49.306;8.500;2023-02-12T09:56:33;28.80;;;19.20;;
9722;SDS011;4900;49.306;8.500;2023-02-12T09:59:38;29.03;;;19.63;;
9722;SDS011;4900;49.306;8.500;2023-02-12T10:02:46;27.87;;;19.50;;
9722;SDS011;4900;49.306;8.500;2023-02-12T10:05:58;28.70;;;19.73;;
9722;SDS011;4900;49.306;8.500;2023-02-12T10:12:57;30.70;;;21.53;;
9722;SDS011;4900;49.306;8.500;2023-02-12T10:19:43;28.97;;;19.67;;
9722;SDS011;4900;49.306;8.500;2023-02-12T10:23:24;30.67;;;20.27;;
9722;SDS011;4900;49.306;8.500;2023-02-12T10:26:32;28.50;;;18.93;;
9722;SDS011;4900;49.306;8.500;2023-02-12T10:29:40;29.67;;;20.47;;
9722;SDS011;4900;49.306;8.500;2023-02-12T10:32:45;30.70;;;19.73;;
9722;SDS011;4900;49.306;8.500;2023-02-12T10:35:56;26.17;;;19.33;;
9722;SDS011;4900;49.306;8.500;2023-02-12T10:42:32;24.77;;;17.17;;
9722;SDS011;4900;49.306;8.500;2023-02-12T10:45:42;24.33;;;16.90;;
9722;SDS011;4900;49.306;8.500;2023-02-12T10:48:47;24.47;;;17.50;;
9722;SDS011;4900;49.306;8.500;2023-02-12T10:55:41;24.42;;;17.38;;
9722;SDS011;4900;49.306;8.500;2023-02-12T10:59:00;28.07;;;18.37;;
9722;SDS011;4900;49.306;8.500;2023-02-12T11:02:03;26.90;;;18.15;;
9722;SDS011;4900;49.306;8.500;2023-02-12T11:05:22;24.77;;;17.25;;
9722;SDS011;4900;49.306;8.500;2023-02-12T11:11:37;22.88;;;15.60;;
9722;SDS011;4900;49.306;8.500;2023-02-12T11:14:44;21.13;;;14.32;;
9722;SDS011;4900;49.306;8.500;2023-02-12T11:18:03;20.15;;;14.10;;
9722;SDS011;4900;49.306;8.500;2023-02-12T11:21:10;19.65;;;13.98;;
9722;SDS011;4900;49.306;8.500;2023-02-12T11:24:33;17.88;;;12.60;;
9722;SDS011;4900;49.306;8.500;2023-02-12T11:27:38;16.00;;;11.68;;
9722;SDS011;4900;49.306;8.500;2023-02-12T11:30:48;16.55;;;11.52;;
9722;SDS011;4900;49.306;8.500;2023-02-12T11:34:06;16.65;;;11.43;;
9722;SDS011;4900;49.306;8.500;2023-02-12T11:37:17;18.95;;;12.50;;
9722;SDS011;4900;49.306;8.500;2023-02-12T11:40:23;17.23;;;12.10;;
9722;SDS011;4900;49.306;8.500;2023-02-12T11:43:29;16.27;;;12.45;;
9722;SDS011;4900;49.306;8.500;2023-02-12T11:46:32;15.93;;;10.93;;
9722;SDS011;4900;49.306;8.500;2023-02-12T11:49:37;14.98;;;10.55;;
9722;SDS011;4900;49.306;8.500;2023-02-12T11:52:46;16.50;;;12.10;;
9722;SDS011;4900;49.306;8.500;2023-02-12T11:55:53;16.40;;;11.43;;
9722;SDS011;4900;49.306;8.500;2023-02-12T11:59:08;12.02;;;8.75;;
9722;SDS011;4900;49.306;8.500;2023-02-12T12:02:27;10.98;;;8.88;;
9722;SDS011;4900;49.306;8.500;2023-02-12T12:05:39;9.82;;;6.80;;
9722;SDS011;4900;49.306;8.500;2023-02-12T12:12:20;8.35;;;6.40;;
9722;SDS011;4900;49.306;8.500;2023-02-12T12:15:28;9.00;;;6.00;;
9722;SDS011;4900;49.306;8.500;2023-02-12T12:19:11;7.68;;;5.82;;
9722;SDS011;4900;49.306;8.500;2023-02-12T12:26:22;4.70;;;4.07;;
9722;SDS011;4900;49.306;8.500;2023-02-12T12:29:41;6.05;;;5.28;;
9722;SDS011;4900;49.306;8.500;2023-02-12T12:32:53;4.35;;;3.95;;
9722;SDS011;4900;49.306;8.500;2023-02-12T12:39:39;5.03;;;4.22;;
9722;SDS011;4900;49.306;8.500;2023-02-12T13:12:37;5.32;;;4.30;;
9722;SDS011;4900;49.306;8.500;2023-02-12T13:22:36;5.40;;;4.65;;
9722;SDS011;4900;49.306;8.500;2023-02-12T13:25:48;6.00;;;4.88;;
9722;SDS011;4900;49.306;8.500;2023-02-12T13:29:20;5.45;;;4.72;;
9722;SDS011;4900;49.306;8.500;2023-02-12T13:32:40;6.28;;;4.85;;
9722;SDS011;4900;49.306;8.500;2023-02-12T13:35:52;5.55;;;4.22;;
9722;SDS011;4900;49.306;8.500;2023-02-12T13:39:11;5.38;;;4.50;;
9722;SDS011;4900;49.306;8.500;2023-02-12T13:49:12;7.70;;;6.50;;
9722;SDS011;4900;49.306;8.500;2023-02-12T13:52:22;5.88;;;5.15;;
9722;SDS011;4900;49.306;8.500;2023-02-12T13:56:20;6.47;;;5.70;;
9722;SDS011;4900;49.306;8.500;2023-02-12T14:05:38;5.50;;;4.38;;
9722;SDS011;4900;49.306;8.500;2023-02-12T14:08:43;4.93;;;4.40;;
9722;SDS011;4900;49.306;8.500;2023-02-12T14:11:49;5.50;;;4.80;;
9722;SDS011;4900;49.306;8.500;2023-02-12T14:21:32;4.93;;;4.30;;
9722;SDS011;4900;49.306;8.500;2023-02-12T14:30:44;5.90;;;5.15;;
9722;SDS011;4900;49.306;8.500;2023-02-12T14:33:49;6.60;;;5.70;;
9722;SDS011;4900;49.306;8.500;2023-02-12T14:37:36;6.18;;;5.32;;
9722;SDS011;4900;49.306;8.500;2023-02-12T14:43:36;6.78;;;5.60;;
9722;SDS011;4900;49.306;8.500;2023-02-12T14:47:00;6.50;;;5.63;;
9722;SDS011;4900;49.306;8.500;2023-02-12T14:50:27;6.72;;;5.75;;
9722;SDS011;4900;49.306;8.500;2023-02-12T14:53:33;8.40;;;6.85;;
9722;SDS011;4900;49.306;8.500;2023-02-12T14:56:40;8.07;;;6.68;;
9722;SDS011;4900;49.306;8.500;2023-02-12T14:59:48;8.20;;;6.70;;
9722;SDS011;4900;49.306;8.500;2023-02-12T15:09:23;7.20;;;5.93;;
9722;SDS011;4900;49.306;8.500;2023-02-12T15:12:42;9.27;;;6.85;;
9722;SDS011;4900;49.306;8.500;2023-02-12T15:16:05;11.15;;;7.70;;
9722;SDS011;4900;49.306;8.500;2023-02-12T15:22:41;9.30;;;7.90;;
9722;SDS011;4900;49.306;8.500;2023-02-12T15:25:44;15.75;;;10.52;;
9722;SDS011;4900;49.306;8.500;2023-02-12T15:28:48;15.25;;;10.02;;
9722;SDS011;4900;49.306;8.500;2023-02-12T15:31:58;21.15;;;13.43;;
9722;SDS011;4900;49.306;8.500;2023-02-12T15:35:04;10.27;;;7.82;;
9722;SDS011;4900;49.306;8.500;2023-02-12T15:38:14;11.80;;;8.20;;
9722;SDS011;4900;49.306;8.500;2023-02-12T15:41:25;7.85;;;6.72;;
9722;SDS011;4900;49.306;8.500;2023-02-12T15:44:34;8.02;;;6.78;;
9722;SDS011;4900;49.306;8.500;2023-02-12T15:47:39;7.45;;;6.30;;
9722;SDS011;4900;49.306;8.500;2023-02-12T15:50:48;7.97;;;6.53;;
9722;SDS011;4900;49.306;8.500;2023-02-12T15:53:53;10.65;;;8.98;;
9722;SDS011;4900;49.306;8.500;2023-02-12T15:56:56;10.25;;;8.35;;
9722;SDS011;4900;49.306;8.500;2023-02-12T16:00:05;8.05;;;7.25;;
9722;SDS011;4900;49.306;8.500;2023-02-12T16:06:32;12.27;;;10.60;;
9722;SDS011;4900;49.306;8.500;2023-02-12T16:09:37;10.93;;;9.50;;
9722;SDS011;4900;49.306;8.500;2023-02-12T16:12:40;10.52;;;8.30;;
9722;SDS011;4900;49.306;8.500;2023-02-12T16:15:44;9.75;;;8.30;;
9722;SDS011;4900;49.306;8.500;2023-02-12T16:19:12;8.90;;;7.30;;
9722;SDS011;4900;49.306;8.500;2023-02-12T16:22:18;9.43;;;7.18;;
9722;SDS011;4900;49.306;8.500;2023-02-12T16:25:26;9.10;;;7.22;;
9722;SDS011;4900;49.306;8.500;2023-02-12T16:28:31;10.15;;;6.80;;
9722;SDS011;4900;49.306;8.500;2023-02-12T16:31:34;7.47;;;6.40;;
9722;SDS011;4900;49.306;8.500;2023-02-12T16:34:37;9.65;;;6.93;;
9722;SDS011;4900;49.306;8.500;2023-02-12T16:37:42;8.57;;;6.68;;
9722;SDS011;4900;49.306;8.500;2023-02-12T16:41:17;8.57;;;6.38;;
9722;SDS011;4900;49.306;8.500;2023-02-12T16:44:26;8.45;;;6.80;;
9722;SDS011;4900;49.306;8.500;2023-02-12T16:47:32;7.70;;;5.70;;
9722;SDS011;4900;49.306;8.500;2023-02-12T16:50:36;7.30;;;5.43;;
9722;SDS011;4900;49.306;8.500;2023-02-12T16:53:45;7.03;;;5.33;;
9722;SDS011;4900;49.306;8.500;2023-02-12T16:56:49;6.70;;;5.33;;
9722;SDS011;4900;49.306;8.500;2023-02-12T16:59:51;6.70;;;5.07;;
9722;SDS011;4900;49.306;8.500;2023-02-12T17:02:54;6.47;;;5.03;;
9722;SDS011;4900;49.306;8.500;2023-02-12T17:05:58;6.63;;;4.60;;
9722;SDS011;4900;49.306;8.500;2023-02-12T17:09:01;6.57;;;4.77;;
9722;SDS011;4900;49.306;8.500;2023-02-12T17:12:05;6.40;;;4.37;;
9722;SDS011;4900;49.306;8.500;2023-02-12T17:15:09;8.27;;;5.00;;
9722;SDS011;4900;49.306;8.500;2023-02-12T17:18:16;6.57;;;4.53;;
9722;SDS011;4900;49.306;8.500;2023-02-12T17:21:20;7.60;;;4.53;;
9722;SDS011;4900;49.306;8.500;2023-02-12T17:24:30;6.63;;;4.80;;
9722;SDS011;4900;49.306;8.500;2023-02-12T17:27:35;6.13;;;4.87;;
9722;SDS011;4900;49.306;8.500;2023-02-12T17:30:38;8.03;;;5.17;;
9722;SDS011;4900;49.306;8.500;2023-02-12T17:33:41;6.00;;;4.80;;
9722;SDS011;4900;49.306;8.500;2023-02-12T17:36:45;7.33;;;5.17;;
9722;SDS011;4900;49.306;8.500;2023-02-12T17:39:47;6.50;;;4.50;;
9722;SDS011;4900;49.306;8.500;2023-02-12T17:42:51;6.40;;;4.50;;
9722;SDS011;4900;49.306;8.500;2023-02-12T17:45:54;6.70;;;5.10;;
9722;SDS011;4900;49.306;8.500;2023-02-12T17:48:57;6.80;;;4.60;;
9722;SDS011;4900;49.306;8.500;2023-02-12T17:52:01;6.97;;;5.37;;
9722;SDS011;4900;49.306;8.500;2023-02-12T17:55:04;7.87;;;5.33;;
9722;SDS011;4900;49.306;8.500;2023-02-12T17:58:08;9.20;;;5.93;;
9722;SDS011;4900;49.306;8.500;2023-02-12T18:01:12;9.43;;;5.90;;
9722;SDS011;4900;49.306;8.500;2023-02-12T18:04:17;8.97;;;6.40;;
9722;SDS011;4900;49.306;8.500;2023-02-12T18:07:20;10.50;;;7.00;;
9722;SDS011;4900;49.306;8.500;2023-02-12T18:10:23;8.60;;;6.40;;
9722;SDS011;4900;49.306;8.500;2023-02-12T18:13:26;10.47;;;7.37;;
9722;SDS011;4900;49.306;8.500;2023-02-12T18:16:31;13.27;;;8.03;;
9722;SDS011;4900;49.306;8.500;2023-02-12T18:19:36;12.50;;;8.57;;
9722;SDS011;4900;49.306;8.500;2023-02-12T18:22:39;13.77;;;9.07;;
9722;SDS011;4900;49.306;8.500;2023-02-12T18:25:42;13.87;;;8.87;;
9722;SDS011;4900;49.306;8.500;2023-02-12T18:28:46;10.43;;;7.87;;
9722;SDS011;4900;49.306;8.500;2023-02-12T18:31:49;12.67;;;8.63;;
9722;SDS011;4900;49.306;8.500;2023-02-12T18:34:52;12.67;;;8.40;;
9722;SDS011;4900;49.306;8.500;2023-02-12T18:37:55;12.50;;;8.30;;
9722;SDS011;4900;49.306;8.500;2023-02-12T18:40:58;12.93;;;8.43;;
9722;SDS011;4900;49.306;8.500;2023-02-12T18:44:02;11.60;;;7.00;;
9722;SDS011;4900;49.306;8.500;2023-02-12T18:47:07;14.27;;;9.83;;
9722;SDS011;4900;49.306;8.500;2023-02-12T18:50:10;19.53;;;13.03;;
9722;SDS011;4900;49.306;8.500;2023-02-12T18:53:13;20.03;;;13.33;;
9722;SDS011;4900;49.306;8.500;2023-02-12T18:56:16;13.47;;;9.53;;
9722;SDS011;4900;49.306;8.500;2023-02-12T18:59:19;16.60;;;10.97;;
9722;SDS011;4900;49.306;8.500;2023-02-12T19:02:23;18.70;;;11.73;;
9722;SDS011;4900;49.306;8.500;2023-02-12T19:05:26;14.90;;;9.97;;
9722;SDS011;4900;49.306;8.500;2023-02-12T19:08:28;15.73;;;10.27;;
9722;SDS011;4900;49.306;8.500;2023-02-12T19:11:31;23.03;;;14.80;;
9722;SDS011;4900;49.306;8.500;2023-02-12T19:14:35;26.30;;;15.77;;
9722;SDS011;4900;49.306;8.500;2023-02-12T19:17:38;24.17;;;14.60;;
9722;SDS011;4900;49.306;8.500;2023-02-12T19:20:41;24.17;;;13.83;;
9722;SDS011;4900;49.306;8.500;2023-02-12T19:23:44;23.23;;;13.90;;
9722;SDS011;4900;49.306;8.500;2023-02-12T19:26:49;24.53;;;14.80;;
9722;SDS011;4900;49.306;8.500;2023-02-12T19:29:55;26.60;;;15.60;;
9722;SDS011;4900;49.306;8.500;2023-02-12T19:32:58;21.30;;;12.97;;
9722;SDS011;4900;49.306;8.500;2023-02-12T19:36:01;25.57;;;14.07;;
9722;SDS011;4900;49.306;8.500;2023-02-12T19:39:05;19.87;;;12.60;;
9722;SDS011;4900;49.306;8.500;2023-02-12T19:42:08;27.57;;;15.63;;
9722;SDS011;4900;49.306;8.500;2023-02-12T19:45:13;24.13;;;14.90;;
9722;SDS011;4900;49.306;8.500;2023-02-12T19:48:16;22.87;;;13.93;;
9722;SDS011;4900;49.306;8.500;2023-02-12T19:51:20;21.83;;;13.93;;
9722;SDS011;4900;49.306;8.500;2023-02-12T19:54:23;23.77;;;13.63;;
9722;SDS011;4900;49.306;8.500;2023-02-12T19:57:26;26.73;;;14.30;;
9722;SDS011;4900;49.306;8.500;2023-02-12T20:00:29;25.33;;;14.80;;
9722;SDS011;4900;49.306;8.500;2023-02-12T20:03:32;23.03;;;13.87;;
9722;SDS011;4900;49.306;8.500;2023-02-12T20:06:35;25.33;;;15.07;;
9722;SDS011;4900;49.306;8.500;2023-02-12T20:09:39;27.63;;;15.70;;
9722;SDS011;4900;49.306;8.500;2023-02-12T20:12:41;26.60;;;15.50;;
9722;SDS011;4900;49.306;8.500;2023-02-12T20:15:44;32.60;;;17.20;;
9722;SDS011;4900;49.306;8.500;2023-02-12T20:18:48;27.47;;;16.97;;
9722;SDS011;4900;49.306;8.500;2023-02-12T20:21:53;29.70;;;16.67;;
9722;SDS011;4900;49.306;8.500;2023-02-12T20:24:58;26.60;;;16.43;;
9722;SDS011;4900;49.306;8.500;2023-02-12T20:28:01;29.67;;;17.03;;
9722;SDS011;4900;49.306;8.500;2023-02-12T20:31:23;27.23;;;16.43;;
9722;SDS011;4900;49.306;8.500;2023-02-12T20:34:28;26.50;;;15.40;;
9722;SDS011;4900;49.306;8.500;2023-02-12T20:37:31;23.07;;;14.33;;
9722;SDS011;4900;49.306;8.500;2023-02-12T20:40:35;23.87;;;14.23;;
9722;SDS011;4900;49.306;8.500;2023-02-12T20:43:39;24.23;;;14.63;;
9722;SDS011;4900;49.306;8.500;2023-02-12T20:46:45;21.00;;;13.17;;
9722;SDS011;4900;49.306;8.500;2023-02-12T20:49:49;24.43;;;14.60;;
9722;SDS011;4900;49.306;8.500;2023-02-12T20:52:52;24.73;;;14.97;;
9722;SDS011;4900;49.306;8.500;2023-02-12T20:55:58;26.90;;;15.50;;
9722;SDS011;4900;49.306;8.500;2023-02-12T20:59:06;23.13;;;14.53;;
9722;SDS011;4900;49.306;8.500;2023-02-12T21:02:10;21.23;;;13.40;;
9722;SDS011;4900;49.306;8.500;2023-02-12T21:05:13;23.70;;;14.57;;
9722;SDS011;4900;49.306;8.500;2023-02-12T21:08:18;23.17;;;15.33;;
9722;SDS011;4900;49.306;8.500;2023-02-12T21:11:22;23.93;;;15.00;;
9722;SDS011;4900;49.306;8.500;2023-02-12T21:14:26;24.27;;;14.97;;
9722;SDS011;4900;49.306;8.500;2023-02-12T21:17:29;24.23;;;15.03;;
9722;SDS011;4900;49.306;8.500;2023-02-12T21:20:32;21.40;;;14.13;;
9722;SDS011;4900;49.306;8.500;2023-02-12T21:23:37;23.27;;;13.10;;
9722;SDS011;4900;49.306;8.500;2023-02-12T21:26:40;21.63;;;13.37;;
9722;SDS011;4900;49.306;8.500;2023-02-12T21:29:42;18.37;;;11.43;;
9722;SDS011;4900;49.306;8.500;2023-02-12T21:32:45;19.30;;;11.63;;